createdAt,value
2022-09-07T00:00:44.067Z,37.97
2022-09-07T00:03:13.363Z,36.80
2022-09-07T00:05:49.478Z,38.63
2022-09-07T00:08:19.043Z,39.53
2022-09-07T00:10:58.796Z,42.67
2022-09-07T00:13:29.051Z,42.70
2022-09-07T00:15:56.835Z,38.75
2022-09-07T00:18:25.194Z,38.80
2022-09-07T00:21:00.784Z,36.85
2022-09-07T00:23:29.985Z,39.60
2022-09-07T00:26:02.596Z,40.03
2022-09-07T00:28:30.360Z,39.08
2022-09-07T00:30:58.228Z,39.35
2022-09-07T00:33:26.419Z,36.30
2022-09-07T00:35:55.048Z,39.67
2022-09-07T00:38:22.360Z,37.55
2022-09-07T00:40:49.734Z,37.17
2022-09-07T00:43:29.760Z,37.72
2022-09-07T00:45:57.024Z,38.83
2022-09-07T00:48:31.406Z,36.45
2022-09-07T00:51:03.079Z,37.58
2022-09-07T00:53:41.198Z,37.63
2022-09-07T00:56:10.103Z,37.28
2022-09-07T00:58:41.632Z,38.60
2022-09-07T01:01:10.222Z,35.92
2022-09-07T01:03:42.457Z,35.42
2022-09-07T01:06:29.957Z,37.45
2022-09-07T01:09:02.476Z,41.55
2022-09-07T01:11:32.596Z,38.53
2022-09-07T01:13:59.868Z,42.80
2022-09-07T01:17:01.536Z,38.80
2022-09-07T01:19:49.308Z,36.20
2022-09-07T01:22:53.678Z,36.80
2022-09-07T01:25:23.933Z,37.72
2022-09-07T01:28:02.054Z,38.40
2022-09-07T01:30:35.203Z,38.58
2022-09-07T01:33:15.261Z,38.80
2022-09-07T01:36:09.286Z,34.97
2022-09-07T01:38:36.666Z,37.08
2022-09-07T01:41:14.638Z,35.63
2022-09-07T01:43:54.348Z,32.97
2022-09-07T01:46:44.420Z,35.00
2022-09-07T01:49:26.709Z,37.25
2022-09-07T01:52:03.766Z,32.90
2022-09-07T01:54:36.945Z,30.55
2022-09-07T01:57:10.591Z,32.60
2022-09-07T02:00:09.892Z,35.95
2022-09-07T02:02:48.275Z,31.58
2022-09-07T02:05:21.746Z,32.28
2022-09-07T02:07:53.989Z,34.10
2022-09-07T02:10:39.021Z,32.10
2022-09-07T02:13:38.578Z,29.63
2022-09-07T02:16:16.981Z,31.45
2022-09-07T02:18:50.626Z,30.48
2022-09-07T02:21:26.424Z,32.20
2022-09-07T02:23:59.837Z,28.00
2022-09-07T02:26:29.486Z,27.05
2022-09-07T02:28:57.435Z,26.63
2022-09-07T02:33:55.494Z,27.42
2022-09-07T02:36:30.756Z,26.45
2022-09-07T02:38:58.048Z,26.77
2022-09-07T02:41:32.074Z,29.40
2022-09-07T02:44:01.183Z,24.63
2022-09-07T02:46:46.005Z,27.45
2022-09-07T02:49:43.868Z,26.38
2022-09-07T02:52:28.026Z,25.92
2022-09-07T02:55:29.272Z,25.02
2022-09-07T02:58:05.580Z,26.77
2022-09-07T03:00:40.328Z,25.55
2022-09-07T03:03:44.423Z,27.30
2022-09-07T03:06:23.752Z,28.67
2022-09-07T03:08:54.679Z,28.35
2022-09-07T03:11:22.633Z,26.52
2022-09-07T03:16:17.007Z,24.13
2022-09-07T03:18:44.548Z,27.17
2022-09-07T03:21:16.923Z,27.38
2022-09-07T03:23:55.201Z,28.67
2022-09-07T03:26:25.194Z,27.33
2022-09-07T03:28:52.427Z,25.88
2022-09-07T03:31:20.256Z,39.38
2022-09-07T03:33:47.550Z,35.38
2022-09-07T03:36:14.762Z,27.63
2022-09-07T03:38:42.055Z,29.38
2022-09-07T03:41:09.409Z,23.55
2022-09-07T03:43:36.846Z,26.13
2022-09-07T03:46:06.078Z,23.80
2022-09-07T03:48:35.310Z,26.90
2022-09-07T03:51:06.047Z,23.50
2022-09-07T03:53:35.615Z,23.92
2022-09-07T03:56:08.857Z,23.65
2022-09-07T03:58:36.646Z,23.00
2022-09-07T04:01:10.193Z,22.38
2022-09-07T04:03:37.956Z,23.40
2022-09-07T04:06:06.046Z,22.65
2022-09-07T04:08:35.408Z,25.73
2022-09-07T04:11:05.642Z,24.17
2022-09-07T04:13:35.161Z,24.83
2022-09-07T04:16:18.913Z,24.75
2022-09-07T04:18:46.785Z,24.90
2022-09-07T04:21:14.109Z,26.55
2022-09-07T04:23:43.308Z,24.48
2022-09-07T04:26:16.716Z,25.92
2022-09-07T04:28:44.960Z,31.55
2022-09-07T04:31:14.584Z,25.80
2022-09-07T04:33:43.079Z,24.83
2022-09-07T04:36:10.952Z,25.02
2022-09-07T04:41:13.648Z,26.77
2022-09-07T04:43:41.741Z,25.40
2022-09-07T04:46:16.768Z,30.38
2022-09-07T04:48:44.227Z,27.33
2022-09-07T04:51:11.842Z,27.52
2022-09-07T04:53:39.254Z,26.90
2022-09-07T04:56:06.916Z,26.58
2022-09-07T04:58:34.151Z,26.35
2022-09-07T05:05:15.608Z,31.95
2022-09-07T05:07:42.986Z,26.50
2022-09-07T05:10:10.428Z,25.02
2022-09-07T05:12:39.328Z,25.73
2022-09-07T05:15:07.120Z,24.98
2022-09-07T05:17:35.381Z,26.60
2022-09-07T05:20:02.870Z,25.05
2022-09-07T05:22:30.342Z,28.48
2022-09-07T05:24:57.834Z,28.60
2022-09-07T05:27:25.304Z,28.63
2022-09-07T05:30:02.151Z,29.20
2022-09-07T05:32:31.557Z,25.67
2022-09-07T05:34:59.291Z,24.42
2022-09-07T05:37:27.203Z,25.60
2022-09-07T05:42:24.583Z,24.42
2022-09-07T05:44:51.935Z,27.55
2022-09-07T05:47:20.476Z,29.65
2022-09-07T05:49:51.065Z,25.80
2022-09-07T05:52:20.938Z,27.00
2022-09-07T05:54:48.701Z,26.55
2022-09-07T05:57:18.721Z,29.60
2022-09-07T05:59:47.404Z,30.05
2022-09-07T06:02:15.894Z,26.17
2022-09-07T06:04:43.360Z,26.13
2022-09-07T06:07:22.429Z,24.88
2022-09-07T06:13:38.935Z,25.60
2022-09-07T06:16:13.377Z,23.50
2022-09-07T06:18:43.209Z,29.55
2022-09-07T06:21:14.253Z,27.25
2022-09-07T06:23:42.642Z,26.17
2022-09-07T06:26:11.210Z,27.65
2022-09-07T06:28:43.908Z,30.05
2022-09-07T06:31:13.837Z,26.20
2022-09-07T06:33:42.681Z,24.90
2022-09-07T06:36:12.843Z,25.58
2022-09-07T06:38:41.048Z,23.83
2022-09-07T06:44:03.571Z,20.77
2022-09-07T06:49:19.296Z,22.20
2022-09-07T06:51:46.652Z,26.52
2022-09-07T06:57:09.242Z,27.67
2022-09-07T06:59:38.341Z,21.65
2022-09-07T07:02:07.351Z,25.02
2022-09-07T07:04:40.295Z,21.10
2022-09-07T07:07:12.767Z,24.67
2022-09-07T07:09:41.523Z,23.75
2022-09-07T07:12:10.574Z,23.63
2022-09-07T07:14:44.026Z,24.33
2022-09-07T07:17:12.926Z,27.48
2022-09-07T07:19:40.934Z,23.48
2022-09-07T07:24:55.218Z,22.52
2022-09-07T07:27:22.870Z,23.15
2022-09-07T07:29:54.533Z,20.85
2022-09-07T07:32:21.852Z,22.17
2022-09-07T07:34:49.793Z,22.42
2022-09-07T07:42:36.109Z,19.30
2022-09-07T07:47:53.552Z,21.70
2022-09-07T07:50:36.260Z,19.77
2022-09-07T07:55:52.984Z,19.55
2022-09-07T07:58:20.604Z,17.20
2022-09-07T08:00:54.850Z,19.95
2022-09-07T08:03:24.655Z,22.10
2022-09-07T08:05:52.264Z,17.88
2022-09-07T08:08:21.803Z,19.08
2022-09-07T08:10:54.126Z,24.65
2022-09-07T08:13:23.688Z,20.10
2022-09-07T08:15:52.252Z,20.52
2022-09-07T08:18:20.163Z,18.27
2022-09-07T08:20:47.416Z,17.40
2022-09-07T08:23:15.745Z,17.38
2022-09-07T08:25:51.734Z,21.52
2022-09-07T08:28:40.301Z,16.58
2022-09-07T08:31:15.973Z,15.73
2022-09-07T08:33:43.524Z,16.35
2022-09-07T08:36:16.733Z,19.83
2022-09-07T08:38:44.336Z,17.17
2022-09-07T08:41:32.566Z,17.83
2022-09-07T08:44:43.080Z,14.60
2022-09-07T08:47:19.869Z,15.10
2022-09-07T08:49:53.452Z,13.70
2022-09-07T08:52:26.027Z,13.05
2022-09-07T08:55:03.550Z,16.45
2022-09-07T09:00:23.216Z,16.52
2022-09-07T09:05:50.366Z,12.98
2022-09-07T09:08:48.902Z,13.68
2022-09-07T09:11:39.555Z,12.90
2022-09-07T09:14:13.043Z,12.30
2022-09-07T09:16:45.468Z,12.27
2022-09-07T09:19:22.570Z,12.30
2022-09-07T09:22:01.363Z,14.07
2022-09-07T09:24:37.787Z,15.70
2022-09-07T09:27:05.634Z,13.18
2022-09-07T09:29:34.254Z,12.68
2022-09-07T09:32:36.112Z,14.90
2022-09-07T09:35:15.783Z,13.20
2022-09-07T09:37:44.415Z,13.95
2022-09-07T09:40:33.412Z,13.50
2022-09-07T09:43:06.638Z,12.25
2022-09-07T09:48:34.128Z,14.75
2022-09-07T09:54:06.297Z,16.40
2022-09-07T10:04:00.991Z,14.98
2022-09-07T10:06:30.521Z,11.63
2022-09-07T10:09:02.057Z,13.07
2022-09-07T10:14:46.608Z,14.30
2022-09-07T10:17:31.410Z,12.15
2022-09-07T10:20:17.229Z,12.10
2022-09-07T10:23:06.033Z,11.90
2022-09-07T10:25:34.941Z,13.75
2022-09-07T10:28:14.815Z,13.10
2022-09-07T10:31:21.727Z,14.30
2022-09-07T10:34:39.915Z,14.15
2022-09-07T10:37:15.921Z,13.77
2022-09-07T10:40:07.024Z,15.82
2022-09-07T10:42:39.497Z,11.65
2022-09-07T10:45:16.004Z,14.90
2022-09-07T10:48:04.170Z,12.15
2022-09-07T10:50:35.933Z,11.27
2022-09-07T10:53:37.087Z,12.10
2022-09-07T10:56:25.300Z,10.57
2022-09-07T10:59:17.133Z,11.13
2022-09-07T11:02:14.386Z,12.00
2022-09-07T11:07:43.718Z,12.50
2022-09-07T11:10:48.283Z,11.18
2022-09-07T11:13:23.239Z,12.00
2022-09-07T11:15:55.234Z,11.32
2022-09-07T11:18:46.395Z,11.48
2022-09-07T11:21:56.142Z,11.40
2022-09-07T11:24:39.839Z,12.32
2022-09-07T11:27:17.329Z,10.60
2022-09-07T11:32:36.074Z,11.23
2022-09-07T11:35:19.074Z,13.75
2022-09-07T11:37:59.529Z,15.55
2022-09-07T11:40:55.429Z,12.65
2022-09-07T11:43:30.383Z,10.75
2022-09-07T11:46:05.002Z,14.68
2022-09-07T11:48:57.887Z,11.40
2022-09-07T11:51:42.490Z,14.18
2022-09-07T11:54:37.896Z,11.55
2022-09-07T11:57:11.284Z,15.95
2022-09-07T12:00:11.132Z,14.65
2022-09-07T12:02:58.958Z,12.10
2022-09-07T12:05:45.688Z,12.43
2022-09-07T12:08:15.912Z,10.70
2022-09-07T12:10:47.249Z,13.50
2022-09-07T12:13:43.385Z,12.65
2022-09-07T12:16:35.124Z,10.98
2022-09-07T12:19:24.807Z,16.20
2022-09-07T12:21:52.197Z,11.02
2022-09-07T12:24:49.373Z,15.90
2022-09-07T12:29:48.924Z,13.27
2022-09-07T12:32:55.878Z,12.30
2022-09-07T12:35:26.690Z,12.15
2022-09-07T12:38:01.726Z,11.82
2022-09-07T12:40:29.079Z,11.70
2022-09-07T12:43:14.688Z,12.23
2022-09-07T12:45:42.230Z,13.35
2022-09-07T12:48:15.664Z,10.82
2022-09-07T12:50:54.758Z,12.80
2022-09-07T12:53:33.325Z,13.35
2022-09-07T12:56:19.618Z,13.27
2022-09-07T12:58:58.281Z,13.55
2022-09-07T13:01:50.456Z,11.15
2022-09-07T13:04:44.010Z,12.68
2022-09-07T13:07:35.991Z,15.30
2022-09-07T13:10:16.720Z,18.05
2022-09-07T13:12:57.283Z,12.52
2022-09-07T13:15:40.722Z,15.18
2022-09-07T13:18:27.442Z,16.48
2022-09-07T13:21:18.485Z,21.27
2022-09-07T13:27:05.668Z,22.67
2022-09-07T13:29:42.435Z,24.20
2022-09-07T13:32:19.414Z,21.23
2022-09-07T13:34:55.542Z,26.08
2022-09-07T13:37:25.119Z,22.25
2022-09-07T13:39:55.769Z,20.20
2022-09-07T13:42:27.999Z,22.83
2022-09-07T13:45:05.047Z,22.98
2022-09-07T13:47:55.545Z,17.92
2022-09-07T13:50:31.311Z,13.93
2022-09-07T13:53:23.397Z,14.82
2022-09-07T13:56:03.387Z,15.98
2022-09-07T13:58:41.977Z,17.27
2022-09-07T14:01:14.075Z,19.10
2022-09-07T14:04:07.425Z,11.80
2022-09-07T14:06:39.146Z,12.23
2022-09-07T14:09:18.729Z,10.73
2022-09-07T14:11:51.271Z,11.93
2022-09-07T14:14:26.303Z,11.75
2022-09-07T14:17:06.086Z,11.98
2022-09-07T14:19:49.731Z,9.20
2022-09-07T14:22:35.477Z,12.13
2022-09-07T14:25:06.134Z,15.88
2022-09-07T14:27:38.082Z,12.80
2022-09-07T14:30:33.504Z,13.43
2022-09-07T14:33:08.296Z,15.35
2022-09-07T14:35:41.402Z,17.45
2022-09-07T14:41:15.500Z,13.73
2022-09-07T14:43:58.444Z,13.35
2022-09-07T14:46:29.084Z,15.73
2022-09-07T14:49:20.998Z,15.25
2022-09-07T14:51:51.163Z,17.83
2022-09-07T14:54:27.841Z,16.00
2022-09-07T14:57:02.582Z,18.67
2022-09-07T14:59:47.515Z,15.45
2022-09-07T15:02:26.458Z,15.70
2022-09-07T15:05:19.845Z,14.93
2022-09-07T15:07:52.267Z,17.77
2022-09-07T15:10:23.506Z,16.52
2022-09-07T15:12:54.088Z,14.73
2022-09-07T15:15:27.887Z,17.92
2022-09-07T15:18:01.872Z,18.48
2022-09-07T15:20:35.119Z,15.23
2022-09-07T15:23:12.860Z,13.73
2022-09-07T15:29:08.256Z,17.45
2022-09-07T15:33:52.643Z,17.20
2022-09-07T15:36:20.478Z,13.85
2022-09-07T15:39:03.432Z,15.98
2022-09-07T15:41:32.760Z,15.88
2022-09-07T15:44:00.184Z,18.33
2022-09-07T15:46:27.633Z,14.35
2022-09-07T15:48:55.836Z,16.05
2022-09-07T15:54:13.748Z,18.20
2022-09-07T15:56:44.422Z,15.38
2022-09-07T15:59:30.612Z,22.30
2022-09-07T16:01:58.613Z,16.63
2022-09-07T16:04:26.443Z,11.63
2022-09-07T16:09:22.169Z,13.07
2022-09-07T16:11:51.199Z,13.45
2022-09-07T16:14:18.678Z,12.98
2022-09-07T16:19:36.741Z,12.77
2022-09-07T16:22:09.010Z,12.82
2022-09-07T16:24:36.468Z,13.70
2022-09-07T16:27:04.093Z,12.57
2022-09-07T16:29:31.323Z,11.52
2022-09-07T16:34:45.967Z,14.18
2022-09-07T16:37:13.547Z,12.52
2022-09-07T16:39:41.823Z,12.88
2022-09-07T16:42:09.211Z,13.98
2022-09-07T16:44:36.610Z,14.75
2022-09-07T16:47:04.538Z,15.75
2022-09-07T16:49:31.814Z,15.70
2022-09-07T16:51:59.328Z,17.58
2022-09-07T16:54:26.895Z,15.23
2022-09-07T16:56:55.893Z,15.48
2022-09-07T16:59:26.883Z,18.10
2022-09-07T17:01:54.469Z,15.75
2022-09-07T17:04:22.383Z,16.27
2022-09-07T17:06:52.645Z,17.30
2022-09-07T17:09:20.817Z,17.52
2022-09-07T17:11:48.171Z,15.02
2022-09-07T17:14:15.689Z,14.52
2022-09-07T17:16:43.205Z,16.58
2022-09-07T17:22:02.651Z,16.05
2022-09-07T17:24:32.839Z,15.98
2022-09-07T17:27:02.312Z,15.57
2022-09-07T17:29:37.421Z,16.05
2022-09-07T17:34:55.739Z,18.25
2022-09-07T17:37:23.839Z,13.98
2022-09-07T17:39:51.099Z,16.48
2022-09-07T17:42:18.451Z,15.98
2022-09-07T17:44:45.722Z,16.77
2022-09-07T17:47:15.689Z,14.55
2022-09-07T17:49:47.665Z,17.67
2022-09-07T17:52:16.350Z,17.83
2022-09-07T17:54:43.650Z,15.00
2022-09-07T17:57:10.978Z,15.65
2022-09-07T18:02:25.578Z,17.50
2022-09-07T18:04:52.903Z,16.33
2022-09-07T18:07:20.250Z,16.63
2022-09-07T18:09:48.112Z,15.85
2022-09-07T18:14:43.874Z,19.00
2022-09-07T18:17:11.856Z,15.18
2022-09-07T18:19:39.840Z,20.13
2022-09-07T18:22:08.661Z,22.05
2022-09-07T18:24:38.337Z,19.08
2022-09-07T18:27:06.053Z,16.75
2022-09-07T18:29:34.693Z,18.40
2022-09-07T18:32:08.211Z,19.35
2022-09-07T18:34:37.681Z,19.38
2022-09-07T18:37:06.102Z,17.88
2022-09-07T18:39:41.480Z,20.55
2022-09-07T18:42:09.870Z,18.85
2022-09-07T18:47:29.799Z,20.80
2022-09-07T18:49:58.340Z,17.95
2022-09-07T18:55:14.117Z,19.17
2022-09-07T18:57:41.612Z,23.27
2022-09-07T19:00:11.496Z,20.95
2022-09-07T19:02:42.582Z,20.55
2022-09-07T19:08:04.094Z,18.27
2022-09-07T19:10:36.760Z,20.27
2022-09-07T19:13:04.634Z,19.83
2022-09-07T19:15:37.410Z,20.45
2022-09-07T19:18:06.751Z,19.10
2022-09-07T19:20:35.210Z,20.73
2022-09-07T19:23:04.442Z,20.65
2022-09-07T19:25:33.313Z,18.58
2022-09-07T19:28:01.226Z,20.42
2022-09-07T19:30:28.741Z,20.05
2022-09-07T19:32:58.587Z,19.65
2022-09-07T19:35:29.103Z,20.90
2022-09-07T19:37:56.400Z,21.55
2022-09-07T19:40:23.926Z,21.42
2022-09-07T19:42:52.111Z,24.48
2022-09-07T19:45:19.616Z,24.27
2022-09-07T19:47:49.265Z,21.33
2022-09-07T19:50:17.232Z,25.02
2022-09-07T19:52:48.105Z,24.75
2022-09-07T19:55:17.166Z,25.70
2022-09-07T19:57:47.888Z,28.20
2022-09-07T20:00:19.355Z,25.50
2022-09-07T20:02:50.243Z,24.70
2022-09-07T20:05:18.883Z,26.70
2022-09-07T20:07:46.599Z,24.30
2022-09-07T20:10:14.362Z,29.02
2022-09-07T20:12:41.927Z,22.25
2022-09-07T20:15:10.237Z,26.27
2022-09-07T20:17:37.740Z,24.08
2022-09-07T20:20:06.178Z,26.45
2022-09-07T20:22:33.588Z,24.48
2022-09-07T20:25:00.880Z,27.85
2022-09-07T20:27:30.181Z,25.50
2022-09-07T20:29:58.267Z,26.42
2022-09-07T20:32:27.862Z,28.80
2022-09-07T20:34:55.220Z,26.27
2022-09-07T20:37:26.674Z,27.83
2022-09-07T20:39:54.872Z,28.85
2022-09-07T20:42:22.250Z,26.80
2022-09-07T20:44:49.553Z,29.30
2022-09-07T20:47:16.740Z,26.63
2022-09-07T20:49:44.874Z,28.92
2022-09-07T20:52:12.107Z,26.73
2022-09-07T20:54:39.354Z,28.27
2022-09-07T20:57:06.578Z,30.15
2022-09-07T20:59:33.780Z,29.67
2022-09-07T21:02:00.982Z,33.83
2022-09-07T21:04:28.502Z,33.47
2022-09-07T21:06:55.748Z,30.08
2022-09-07T21:09:23.091Z,31.58
2022-09-07T21:11:53.091Z,30.73
2022-09-07T21:14:23.927Z,32.53
2022-09-07T21:16:51.146Z,29.08
2022-09-07T21:19:18.490Z,30.83
2022-09-07T21:21:45.731Z,32.30
2022-09-07T21:24:22.803Z,32.90
2022-09-07T21:26:51.220Z,31.73
2022-09-07T21:29:24.214Z,33.72
2022-09-07T21:31:55.542Z,29.00
2022-09-07T21:34:23.073Z,30.42
2022-09-07T21:36:50.785Z,30.08
2022-09-07T21:41:45.853Z,34.22
2022-09-07T21:44:15.649Z,32.78
2022-09-07T21:46:44.480Z,31.35
2022-09-07T21:49:12.345Z,34.65
2022-09-07T21:54:07.000Z,31.95
2022-09-07T21:56:34.557Z,32.00
2022-09-07T22:01:31.060Z,32.80
2022-09-07T22:04:01.320Z,32.50
2022-09-07T22:06:29.742Z,33.22
2022-09-07T22:08:57.057Z,34.53
2022-09-07T22:11:26.009Z,33.80
2022-09-07T22:14:02.027Z,28.25
2022-09-07T22:16:30.666Z,29.83
2022-09-07T22:18:58.139Z,34.15
2022-09-07T22:21:27.506Z,34.20
2022-09-07T22:23:57.418Z,37.38
2022-09-07T22:26:26.997Z,33.53
2022-09-07T22:28:54.919Z,35.38
2022-09-07T22:31:28.246Z,30.92
2022-09-07T22:33:56.878Z,34.72
2022-09-07T22:36:30.169Z,33.65
2022-09-07T22:38:59.892Z,30.83
2022-09-07T22:41:29.756Z,35.47
2022-09-07T22:43:58.468Z,35.30
2022-09-07T22:46:28.190Z,34.05
2022-09-07T22:48:57.370Z,36.03
2022-09-07T22:51:26.722Z,37.67
2022-09-07T22:53:55.411Z,38.13
2022-09-07T22:56:25.258Z,34.08
2022-09-07T22:58:55.376Z,39.88
2022-09-07T23:01:23.634Z,34.85
2022-09-07T23:03:51.591Z,39.08
2022-09-07T23:06:29.630Z,33.60
2022-09-07T23:08:58.795Z,34.33
2022-09-07T23:11:26.870Z,32.22
2022-09-07T23:13:56.969Z,35.70
2022-09-07T23:16:25.659Z,31.00
2022-09-07T23:18:53.245Z,29.00
2022-09-07T23:21:20.842Z,35.55
2022-09-07T23:24:01.456Z,36.10
2022-09-07T23:26:31.404Z,34.38
2022-09-07T23:29:01.191Z,35.65
2022-09-07T23:31:32.246Z,34.63
2022-09-07T23:34:01.119Z,31.38
2022-09-07T23:36:28.562Z,35.60
2022-09-07T23:38:57.445Z,35.08
2022-09-07T23:41:25.803Z,36.13
2022-09-07T23:43:54.336Z,32.45
2022-09-07T23:46:22.171Z,31.17
2022-09-07T23:51:22.799Z,36.50
2022-09-07T23:53:51.971Z,41.85
2022-09-07T23:58:46.318Z,40.70
